createdAt,value
2019-04-07T00:00:56.348Z,77.79
2019-04-07T00:01:56.019Z,77.48
2019-04-07T00:02:55.803Z,77.48
2019-04-07T00:03:55.926Z,77.69
2019-04-07T00:04:55.818Z,77.34
2019-04-07T00:05:55.789Z,77.28
2019-04-07T00:06:56.089Z,77.38
2019-04-07T00:07:55.743Z,77.48
2019-04-07T00:08:55.760Z,77.38
2019-04-07T00:09:55.887Z,77.08
2019-04-07T00:10:55.728Z,77.48
2019-04-07T00:11:56.226Z,77.69
2019-04-07T00:12:55.714Z,77.69
2019-04-07T00:13:55.703Z,77.38
2019-04-07T00:14:56.213Z,77.69
2019-04-07T00:15:55.721Z,77.38
2019-04-07T00:16:55.877Z,77.48
2019-04-07T00:17:55.636Z,77.48
2019-04-07T00:18:55.698Z,78.00
2019-04-07T00:19:55.740Z,77.89
2019-04-07T00:20:55.607Z,78.23
2019-04-07T00:21:55.767Z,77.83
2019-04-07T00:22:55.581Z,77.93
2019-04-07T00:23:56.150Z,78.13
2019-04-07T00:24:55.632Z,78.03
2019-04-07T00:25:55.552Z,78.54
2019-04-07T00:26:55.676Z,78.23
2019-04-07T00:27:55.557Z,78.34
2019-04-07T00:28:55.520Z,78.75
2019-04-07T00:29:55.513Z,78.03
2019-04-07T00:30:55.520Z,78.88
2019-04-07T00:31:55.763Z,78.58
2019-04-07T00:32:55.484Z,78.68
2019-04-07T00:33:55.498Z,78.23
2019-04-07T00:34:55.460Z,78.68
2019-04-07T00:35:55.877Z,79.05
2019-04-07T00:36:55.710Z,78.27
2019-04-07T00:37:55.560Z,78.78
2019-04-07T00:38:56.185Z,78.48
2019-04-07T00:39:55.422Z,78.48
2019-04-07T00:40:55.562Z,78.48
2019-04-07T00:41:55.370Z,78.07
2019-04-07T00:42:55.549Z,78.78
2019-04-07T00:43:56.124Z,78.68
2019-04-07T00:44:55.436Z,78.27
2019-04-07T00:45:55.890Z,78.78
2019-04-07T00:46:55.326Z,78.48
2019-04-07T00:47:55.920Z,78.58
2019-04-07T00:48:56.197Z,78.68
2019-04-07T00:49:55.594Z,78.88
2019-04-07T00:50:55.797Z,79.09
2019-04-07T00:51:55.262Z,79.29
2019-04-07T00:52:55.485Z,79.29
2019-04-07T00:53:55.263Z,79.50
2019-04-07T00:54:55.489Z,79.29
2019-04-07T00:55:55.227Z,79.29
2019-04-07T00:56:55.646Z,79.39
2019-04-07T00:57:55.195Z,79.60
2019-04-07T00:58:55.217Z,79.39
2019-04-07T00:59:55.172Z,79.39
2019-04-07T01:00:55.169Z,79.50
2019-04-07T01:01:55.284Z,79.29
2019-04-07T01:02:55.201Z,79.02
2019-04-07T01:03:55.661Z,79.39
2019-04-07T01:04:55.118Z,79.53
2019-04-07T01:05:55.369Z,79.23
2019-04-07T01:06:55.111Z,79.43
2019-04-07T01:07:55.264Z,79.33
2019-04-07T01:08:55.267Z,79.64
2019-04-07T01:09:55.288Z,79.50
2019-04-07T01:10:55.050Z,79.33
2019-04-07T01:11:55.038Z,79.13
2019-04-07T01:12:55.575Z,79.43
2019-04-07T01:13:55.518Z,79.43
2019-04-07T01:14:55.402Z,79.33
2019-04-07T01:15:55.007Z,79.39
2019-04-07T01:16:54.984Z,79.29
2019-04-07T01:17:55.016Z,78.99
2019-04-07T01:18:54.987Z,78.68
2019-04-07T01:19:55.077Z,79.70
2019-04-07T01:20:54.945Z,78.92
2019-04-07T01:21:54.934Z,79.74
2019-04-07T01:22:55.239Z,79.13
2019-04-07T01:23:54.914Z,79.91
2019-04-07T01:24:54.920Z,79.43
2019-04-07T01:25:55.197Z,79.39
2019-04-07T01:26:54.889Z,79.43
2019-04-07T01:27:55.461Z,78.88
2019-04-07T01:28:55.268Z,78.99
2019-04-07T01:29:55.280Z,79.74
2019-04-07T01:30:54.832Z,79.50
2019-04-07T01:31:54.840Z,79.74
2019-04-07T01:32:54.840Z,79.94
2019-04-07T01:33:55.332Z,79.94
2019-04-07T01:34:54.823Z,79.94
2019-04-07T01:35:54.895Z,79.94
2019-04-07T01:36:54.789Z,79.84
2019-04-07T01:37:54.991Z,79.94
2019-04-07T01:38:54.883Z,79.94
2019-04-07T01:39:54.894Z,79.64
2019-04-07T01:40:55.269Z,79.64
2019-04-07T01:41:54.712Z,79.94
2019-04-07T01:42:55.243Z,80.15
2019-04-07T01:43:54.756Z,79.84
2019-04-07T01:44:55.091Z,79.64
2019-04-07T01:45:54.670Z,79.94
2019-04-07T01:46:54.655Z,79.74
2019-04-07T01:47:54.944Z,79.43
2019-04-07T01:48:54.641Z,79.74
2019-04-07T01:49:54.685Z,79.53
2019-04-07T01:50:54.616Z,79.64
2019-04-07T01:51:54.599Z,79.94
2019-04-07T01:52:54.610Z,79.94
2019-04-07T01:53:54.745Z,79.74
2019-04-07T01:54:54.822Z,79.64
2019-04-07T01:55:54.562Z,79.74
2019-04-07T01:56:54.589Z,78.92
2019-04-07T01:57:54.540Z,79.53
2019-04-07T01:58:54.523Z,79.74
2019-04-07T01:59:55.634Z,79.74
2019-04-07T02:00:54.510Z,79.64
2019-04-07T02:01:54.497Z,79.94
2019-04-07T02:02:54.575Z,79.53
2019-04-07T02:03:54.478Z,79.94
2019-04-07T02:04:54.487Z,79.74
2019-04-07T02:05:59.310Z,79.84
2019-04-07T02:06:55.454Z,79.84
2019-04-07T02:07:54.426Z,79.53
2019-04-07T02:08:54.993Z,79.53
2019-04-07T02:09:54.550Z,79.94
2019-04-07T02:10:55.059Z,79.53
2019-04-07T02:11:55.071Z,79.94
2019-04-07T02:12:54.384Z,79.84
2019-04-07T02:13:54.723Z,79.74
2019-04-07T02:14:54.892Z,79.94
2019-04-07T02:15:54.906Z,79.84
2019-04-07T02:16:54.372Z,79.94
2019-04-07T02:17:54.352Z,79.94
2019-04-07T02:18:54.361Z,79.64
2019-04-07T02:19:54.955Z,79.94
2019-04-07T02:20:54.333Z,79.84
2019-04-07T02:21:54.595Z,80.35
2019-04-07T02:22:54.690Z,80.29
2019-04-07T02:23:54.842Z,80.35
2019-04-07T02:24:54.322Z,80.29
2019-04-07T02:25:54.309Z,80.35
2019-04-07T02:26:54.371Z,80.39
2019-04-07T02:27:54.554Z,80.60
2019-04-07T02:28:54.223Z,80.39
2019-04-07T02:29:54.228Z,80.39
2019-04-07T02:30:54.349Z,80.39
2019-04-07T02:31:54.250Z,80.49
2019-04-07T02:32:54.488Z,80.19
2019-04-07T02:33:54.471Z,80.08
2019-04-07T02:34:54.195Z,79.98
2019-04-07T02:35:54.145Z,80.39
2019-04-07T02:36:54.165Z,80.39
2019-04-07T02:37:54.729Z,80.60
2019-04-07T02:38:54.752Z,80.60
2019-04-07T02:39:54.922Z,80.08
2019-04-07T02:40:54.067Z,80.29
2019-04-07T02:41:54.803Z,80.60
2019-04-07T02:42:54.416Z,80.49
2019-04-07T02:43:54.039Z,80.19
2019-04-07T02:44:54.044Z,80.08
2019-04-07T02:45:54.028Z,80.39
2019-04-07T02:46:54.730Z,80.29
2019-04-07T02:47:54.008Z,80.19
2019-04-07T02:48:54.385Z,80.22
2019-04-07T02:49:54.133Z,80.29
2019-04-07T02:50:54.876Z,80.29
2019-04-07T02:51:54.225Z,80.33
2019-04-07T02:52:54.619Z,80.29
2019-04-07T02:53:53.924Z,80.39
2019-04-07T02:54:54.038Z,80.39
2019-04-07T02:55:55.010Z,80.39
2019-04-07T02:56:54.271Z,80.39
2019-04-07T02:57:54.177Z,80.33
2019-04-07T02:58:54.897Z,80.33
2019-04-07T02:59:54.391Z,80.63
2019-04-07T03:01:57.814Z,80.12
2019-04-07T03:02:58.100Z,80.22
2019-04-07T03:03:57.852Z,80.12
2019-04-07T03:04:58.500Z,80.33
2019-04-07T03:05:58.291Z,80.12
2019-04-07T03:06:58.704Z,80.83
2019-04-07T03:07:57.675Z,80.43
2019-04-07T03:08:57.661Z,80.67
2019-04-07T03:09:57.709Z,81.45
2019-04-07T03:10:57.645Z,81.18
2019-04-07T03:11:57.764Z,81.08
2019-04-07T03:12:58.702Z,80.98
2019-04-07T03:13:58.649Z,80.88
2019-04-07T03:14:58.472Z,80.98
2019-04-07T03:15:57.831Z,81.18
2019-04-07T03:16:57.864Z,80.98
2019-04-07T03:17:57.596Z,80.98
2019-04-07T03:18:57.989Z,81.18
2019-04-07T03:19:57.582Z,81.08
2019-04-07T03:20:57.526Z,81.08
2019-04-07T03:21:57.760Z,81.49
2019-04-07T03:22:57.503Z,80.67
2019-04-07T03:23:57.495Z,80.46
2019-04-07T03:24:58.259Z,80.30
2019-04-07T03:25:58.127Z,80.60
2019-04-07T03:26:57.650Z,79.99
2019-04-07T03:27:57.471Z,79.79
2019-04-07T03:28:58.020Z,80.09
2019-04-07T03:29:57.455Z,79.99
2019-04-07T03:30:59.209Z,80.44
2019-04-07T03:31:59.520Z,80.33
2019-04-07T03:32:58.625Z,80.99
2019-04-07T03:33:59.599Z,81.71
2019-04-07T03:34:58.166Z,82.01
2019-04-07T03:36:01.981Z,82.22
2019-04-07T03:37:19.293Z,82.53
2019-04-07T03:37:59.230Z,83.14
2019-04-07T03:38:57.881Z,83.25
2019-04-07T03:39:57.335Z,83.25
2019-04-07T03:40:57.330Z,83.25
2019-04-07T03:41:57.291Z,83.04
2019-04-07T03:42:57.411Z,82.93
2019-04-07T03:43:57.276Z,83.14
2019-04-07T03:44:57.282Z,83.14
2019-04-07T03:45:57.327Z,83.25
2019-04-07T03:46:57.249Z,83.34
2019-04-07T03:47:57.242Z,83.04
2019-04-07T03:48:57.945Z,82.63
2019-04-07T03:49:57.241Z,82.83
2019-04-07T03:50:57.216Z,83.04
2019-04-07T03:51:58.095Z,82.73
2019-04-07T03:52:57.171Z,82.63
2019-04-07T03:53:57.159Z,82.32
2019-04-07T03:54:57.279Z,82.63
2019-04-07T03:55:57.788Z,82.73
2019-04-07T03:56:57.125Z,82.28
2019-04-07T03:57:57.146Z,82.53
2019-04-07T03:58:57.866Z,82.63
2019-04-07T03:59:57.783Z,82.42
2019-04-07T04:00:57.082Z,82.42
2019-04-07T04:01:57.447Z,82.32
2019-04-07T04:02:57.086Z,82.42
2019-04-07T04:03:57.056Z,82.49
2019-04-07T04:04:57.649Z,82.28
2019-04-07T04:05:57.281Z,82.22
2019-04-07T04:06:57.041Z,82.01
2019-04-07T04:07:57.002Z,81.91
2019-04-07T04:08:56.994Z,82.12
2019-04-07T04:09:58.103Z,81.29
2019-04-07T04:10:58.020Z,82.08
2019-04-07T04:11:56.988Z,81.81
2019-04-07T04:12:56.980Z,82.01
2019-04-07T04:13:56.974Z,81.91
2019-04-07T04:14:57.040Z,81.71
2019-04-07T04:15:56.939Z,82.01
2019-04-07T04:16:57.828Z,81.71
2019-04-07T04:17:57.339Z,81.71
2019-04-07T04:18:56.938Z,81.71
2019-04-07T04:19:57.350Z,81.60
2019-04-07T04:20:57.261Z,81.64
2019-04-07T04:21:56.854Z,81.81
2019-04-07T04:22:57.202Z,81.81
2019-04-07T04:23:57.793Z,82.15
2019-04-07T04:24:57.652Z,82.05
2019-04-07T04:25:57.137Z,82.15
2019-04-07T04:26:57.081Z,82.12
2019-04-07T04:27:56.965Z,81.54
2019-04-07T04:28:56.774Z,81.95
2019-04-07T04:29:56.849Z,81.85
2019-04-07T04:30:57.604Z,81.95
2019-04-07T04:31:57.206Z,81.95
2019-04-07T04:32:56.757Z,82.15
2019-04-07T04:33:57.921Z,82.15
2019-04-07T04:34:57.515Z,82.26
2019-04-07T04:35:56.718Z,82.26
2019-04-07T04:36:56.686Z,82.15
2019-04-07T04:37:56.909Z,82.46
2019-04-07T04:38:56.710Z,82.97
2019-04-07T04:39:57.433Z,82.87
2019-04-07T04:40:56.912Z,82.67
2019-04-07T04:41:57.633Z,82.97
2019-04-07T04:42:56.920Z,82.87
2019-04-07T04:43:56.691Z,82.26
2019-04-07T04:44:56.632Z,82.05
2019-04-07T04:45:56.882Z,81.95
2019-04-07T04:46:56.576Z,82.05
2019-04-07T04:47:56.565Z,81.74
2019-04-07T04:48:56.783Z,81.95
2019-04-07T04:49:57.488Z,82.15
2019-04-07T04:50:56.616Z,82.46
2019-04-07T04:51:57.235Z,82.87
2019-04-07T04:52:56.559Z,82.46
2019-04-07T04:53:56.596Z,81.95
2019-04-07T04:54:57.134Z,81.95
2019-04-07T04:55:56.495Z,82.09
2019-04-07T04:56:56.930Z,82.36
2019-04-07T04:57:56.660Z,82.36
2019-04-07T04:58:56.638Z,81.78
2019-04-07T04:59:56.458Z,81.85
2019-04-07T05:00:56.566Z,82.05
2019-04-07T05:01:56.550Z,81.85
2019-04-07T05:02:57.193Z,82.15
2019-04-07T05:03:56.404Z,81.85
2019-04-07T05:04:57.403Z,81.64
2019-04-07T05:05:56.451Z,82.15
2019-04-07T05:06:57.045Z,82.15
2019-04-07T05:08:01.788Z,81.85
2019-04-07T05:08:57.765Z,82.36
2019-04-07T05:09:56.818Z,82.26
2019-04-07T05:10:56.557Z,82.26
2019-04-07T05:11:56.518Z,82.36
2019-04-07T05:12:56.306Z,81.74
2019-04-07T05:13:56.304Z,81.95
2019-04-07T05:14:56.266Z,82.15
2019-04-07T05:15:56.262Z,82.09
2019-04-07T05:16:56.264Z,82.09
2019-04-07T05:17:56.231Z,82.05
2019-04-07T05:18:56.244Z,81.95
2019-04-07T05:19:56.609Z,81.57
2019-04-07T05:20:56.359Z,82.19
2019-04-07T05:21:56.193Z,81.99
2019-04-07T05:22:56.183Z,81.95
2019-04-07T05:23:56.197Z,81.95
2019-04-07T05:24:56.649Z,82.15
2019-04-07T05:25:56.145Z,82.09
2019-04-07T05:26:56.160Z,82.15
2019-04-07T05:27:56.816Z,82.05
2019-04-07T05:28:56.112Z,81.99
2019-04-07T05:29:56.708Z,82.36
2019-04-07T05:30:56.881Z,81.95
2019-04-07T05:31:56.630Z,82.05
2019-04-07T05:32:56.828Z,82.15
2019-04-07T05:33:56.569Z,81.64
2019-04-07T05:34:56.708Z,82.36
2019-04-07T05:35:56.076Z,82.05
2019-04-07T05:36:56.154Z,81.74
2019-04-07T05:38:02.690Z,81.09
2019-04-07T05:38:57.486Z,81.20
2019-04-07T05:39:56.545Z,81.71
2019-04-07T05:40:56.404Z,80.99
2019-04-07T05:41:56.008Z,81.40
2019-04-07T05:42:55.965Z,80.99
2019-04-07T05:43:55.952Z,81.20
2019-04-07T05:44:56.080Z,81.09
2019-04-07T05:45:56.385Z,81.29
2019-04-07T05:46:56.108Z,80.78
2019-04-07T05:47:55.920Z,80.27
2019-04-07T05:48:56.537Z,80.47
2019-04-07T05:49:58.763Z,80.23
2019-04-07T05:50:58.868Z,80.44
2019-04-07T05:51:56.598Z,80.74
2019-04-07T05:52:56.532Z,80.13
2019-04-07T05:53:55.865Z,80.23
2019-04-07T05:54:56.275Z,80.03
2019-04-07T05:55:56.273Z,80.64
2019-04-07T05:56:58.605Z,80.64
2019-04-07T05:57:55.819Z,80.54
2019-04-07T05:58:55.951Z,80.13
2019-04-07T05:59:55.950Z,80.13
2019-04-07T06:00:56.838Z,80.19
2019-04-07T06:02:00.668Z,80.09
2019-04-07T06:02:57.043Z,78.97
2019-04-07T06:03:56.582Z,79.89
2019-04-07T06:04:58.495Z,79.58
2019-04-07T06:05:56.119Z,79.48
2019-04-07T06:06:56.362Z,79.79
2019-04-07T06:07:55.897Z,79.38
2019-04-07T06:08:55.667Z,78.97
2019-04-07T06:09:55.751Z,78.63
2019-04-07T06:11:00.183Z,78.97
2019-04-07T06:11:56.640Z,78.97
2019-04-07T06:12:56.432Z,78.93
2019-04-07T06:13:55.625Z,78.52
2019-04-07T06:14:56.344Z,78.21
2019-04-07T06:15:55.628Z,78.11
2019-04-07T06:16:55.913Z,78.01
2019-04-07T06:17:59.570Z,77.87
2019-04-07T06:18:56.593Z,77.50
2019-04-07T06:19:55.767Z,77.26
2019-04-07T06:20:56.365Z,77.36
2019-04-07T06:21:55.545Z,77.56
2019-04-07T06:22:55.513Z,76.54
2019-04-07T06:23:59.366Z,76.20
2019-04-07T06:24:56.009Z,75.17
2019-04-07T06:25:57.346Z,75.17
2019-04-07T06:26:55.488Z,75.38
2019-04-07T06:27:55.471Z,75.07
2019-04-07T06:28:58.512Z,75.17
2019-04-07T06:29:59.564Z,74.52
2019-04-07T06:30:57.303Z,74.11
2019-04-07T06:31:56.170Z,73.81
2019-04-07T06:32:55.452Z,73.50
2019-04-07T06:33:55.393Z,73.61
2019-04-07T06:34:55.536Z,73.81
2019-04-07T06:35:56.143Z,73.57
2019-04-07T06:36:56.436Z,73.50
2019-04-07T06:37:57.872Z,73.06
2019-04-07T06:38:56.333Z,73.16
2019-04-07T06:39:55.785Z,73.27
2019-04-07T06:40:57.781Z,73.47
2019-04-07T06:41:58.964Z,73.36
2019-04-07T06:42:55.734Z,73.03
2019-04-07T06:44:08.184Z,72.92
2019-04-07T06:44:59.464Z,72.92
2019-04-07T06:45:55.286Z,72.52
2019-04-07T06:46:57.930Z,71.80
2019-04-07T06:47:56.348Z,72.21
2019-04-07T06:48:55.243Z,72.00
2019-04-07T06:49:55.218Z,71.70
2019-04-07T06:50:58.386Z,71.87
2019-04-07T06:51:55.472Z,71.67
2019-04-07T06:52:55.186Z,72.17
2019-04-07T06:53:55.701Z,71.46
2019-04-07T06:54:56.285Z,71.26
2019-04-07T06:55:59.034Z,71.46
2019-04-07T06:56:55.518Z,71.36
2019-04-07T06:57:55.126Z,71.67
2019-04-07T06:58:55.684Z,71.67
2019-04-07T06:59:55.620Z,71.33
2019-04-07T07:00:56.811Z,70.54
2019-04-07T07:01:58.140Z,70.72
2019-04-07T07:02:55.380Z,71.02
2019-04-07T07:03:55.078Z,70.61
2019-04-07T07:04:55.182Z,70.78
2019-04-07T07:05:55.032Z,70.51
2019-04-07T07:06:55.695Z,70.17
2019-04-07T07:07:55.010Z,69.66
2019-04-07T07:08:56.620Z,69.56
2019-04-07T07:09:59.729Z,70.07
2019-04-07T07:10:56.316Z,69.96
2019-04-07T07:11:55.122Z,69.35
2019-04-07T07:12:59.629Z,69.22
2019-04-07T07:13:56.588Z,68.84
2019-04-07T07:14:55.099Z,68.61
2019-04-07T07:15:54.967Z,68.40
2019-04-07T07:16:55.452Z,68.61
2019-04-07T07:17:57.159Z,68.48
2019-04-07T07:18:56.085Z,68.78
2019-04-07T07:19:56.733Z,68.10
2019-04-07T07:20:55.660Z,67.66
2019-04-07T07:21:54.910Z,67.76
2019-04-07T07:22:55.044Z,67.93
2019-04-07T07:23:54.849Z,67.63
2019-04-07T07:24:57.681Z,66.91
2019-04-07T07:25:56.457Z,67.12
2019-04-07T07:26:57.737Z,67.32
2019-04-07T07:27:54.871Z,66.82
2019-04-07T07:28:55.893Z,66.61
2019-04-07T07:29:55.483Z,67.12
2019-04-07T07:30:54.955Z,66.58
2019-04-07T07:31:59.765Z,66.27
2019-04-07T07:32:56.433Z,65.46
2019-04-07T07:33:54.984Z,65.56
2019-04-07T07:34:55.264Z,65.46
2019-04-07T07:35:54.705Z,65.33
2019-04-07T07:36:56.554Z,65.43
2019-04-07T07:37:58.174Z,65.53
2019-04-07T07:39:00.604Z,65.22
2019-04-07T07:39:56.368Z,64.99
2019-04-07T07:40:54.669Z,64.69
2019-04-07T07:41:55.091Z,64.79
2019-04-07T07:42:56.690Z,64.18
2019-04-07T07:43:54.913Z,64.58
2019-04-07T07:44:54.627Z,64.45
2019-04-07T07:45:54.619Z,63.84
2019-04-07T07:46:55.353Z,63.43
2019-04-07T07:47:55.063Z,63.33
2019-04-07T07:48:58.993Z,63.94
2019-04-07T07:49:55.632Z,64.04
2019-04-07T07:50:54.702Z,64.52
2019-04-07T07:51:54.576Z,64.42
2019-04-07T07:52:54.807Z,63.40
2019-04-07T07:53:57.136Z,63.40
2019-04-07T07:54:55.180Z,63.40
2019-04-07T07:55:54.486Z,63.30
2019-04-07T07:56:54.498Z,63.17
2019-04-07T07:57:58.151Z,62.76
2019-04-07T07:58:55.056Z,62.97
2019-04-07T07:59:55.206Z,62.05
2019-04-07T08:00:54.561Z,62.23
2019-04-07T08:01:54.622Z,62.63
2019-04-07T08:02:54.710Z,63.04
2019-04-07T08:03:55.742Z,62.43
2019-04-07T08:04:56.725Z,61.52
2019-04-07T08:05:54.359Z,61.82
2019-04-07T08:06:54.528Z,61.21
2019-04-07T08:07:55.132Z,61.79
2019-04-07T08:09:05.824Z,60.98
2019-04-07T08:09:56.726Z,61.18
2019-04-07T08:10:58.578Z,61.49
2019-04-07T08:11:55.415Z,61.79
2019-04-07T08:12:54.283Z,61.39
2019-04-07T08:13:55.308Z,61.29
2019-04-07T08:14:57.224Z,60.98
2019-04-07T08:15:54.640Z,61.18
2019-04-07T08:16:54.418Z,60.98
2019-04-07T08:17:54.223Z,60.68
2019-04-07T08:18:54.241Z,61.16
2019-04-07T08:19:54.231Z,60.95
2019-04-07T08:20:54.224Z,61.46
2019-04-07T08:21:54.223Z,59.74
2019-04-07T08:22:54.171Z,60.44
2019-04-07T08:23:54.616Z,59.74
2019-04-07T08:24:54.602Z,59.84
2019-04-07T08:25:56.072Z,60.24
2019-04-07T08:26:56.460Z,59.94
2019-04-07T08:27:54.273Z,60.14
2019-04-07T08:28:54.746Z,60.21
2019-04-07T08:29:54.088Z,59.81
2019-04-07T08:30:54.431Z,59.70
2019-04-07T08:31:55.321Z,58.69
2019-04-07T08:32:57.656Z,59.10
2019-04-07T08:33:55.889Z,59.30
2019-04-07T08:34:54.765Z,58.09
2019-04-07T08:35:55.237Z,57.88
2019-04-07T08:36:54.144Z,57.55
2019-04-07T08:37:54.522Z,57.07
2019-04-07T08:38:55.844Z,56.74
2019-04-07T08:39:56.713Z,57.45
2019-04-07T08:40:54.975Z,57.35
2019-04-07T08:41:54.010Z,57.65
2019-04-07T08:42:53.976Z,57.35
2019-04-07T08:43:56.688Z,57.65
2019-04-07T08:44:57.230Z,57.45
2019-04-07T08:45:55.369Z,57.53
2019-04-07T08:46:54.136Z,57.93
2019-04-07T08:47:53.900Z,57.12
2019-04-07T08:48:54.689Z,57.62
2019-04-07T08:49:56.882Z,57.42
2019-04-07T08:50:57.256Z,57.02
2019-04-07T08:51:54.946Z,57.29
2019-04-07T08:52:53.867Z,56.38
2019-04-07T08:53:53.944Z,56.79
2019-04-07T08:54:53.834Z,57.29
2019-04-07T08:55:54.736Z,56.99
2019-04-07T08:56:54.205Z,57.29
2019-04-07T08:57:53.814Z,57.09
2019-04-07T08:58:54.412Z,57.09
2019-04-07T08:59:53.881Z,57.09
2019-04-07T09:00:53.982Z,57.09
2019-04-07T09:01:54.322Z,55.98
2019-04-07T09:03:01.605Z,56.79
2019-04-07T09:03:54.731Z,56.79
2019-04-07T09:04:53.702Z,56.69
2019-04-07T09:05:56.472Z,56.89
2019-04-07T09:06:53.825Z,56.99
2019-04-07T09:07:54.021Z,56.79
2019-04-07T09:08:54.263Z,56.79
2019-04-07T09:09:54.398Z,56.76
2019-04-07T09:10:53.842Z,56.76
2019-04-07T09:11:56.337Z,57.57
2019-04-07T09:12:54.358Z,57.67
2019-04-07T09:13:53.638Z,57.98
2019-04-07T09:14:53.591Z,57.37
2019-04-07T09:15:54.440Z,57.27
2019-04-07T09:16:56.123Z,57.57
2019-04-07T09:17:54.332Z,58.07
2019-04-07T09:19:00.516Z,58.99
2019-04-07T09:19:54.838Z,57.37
2019-04-07T09:20:53.526Z,57.17
2019-04-07T09:21:54.253Z,57.17
2019-04-07T09:22:56.109Z,55.93
2019-04-07T09:23:55.197Z,56.13
2019-04-07T09:24:53.675Z,55.93
2019-04-07T09:25:53.494Z,55.73
2019-04-07T09:26:53.479Z,56.23
2019-04-07T09:27:54.020Z,56.23
2019-04-07T09:28:55.737Z,53.78
2019-04-07T09:29:53.466Z,54.79
2019-04-07T09:30:53.643Z,55.19
2019-04-07T09:31:54.092Z,54.08
2019-04-07T09:32:53.390Z,55.60
2019-04-07T09:33:53.965Z,56.30
2019-04-07T09:34:55.855Z,55.09
2019-04-07T09:35:56.684Z,55.29
2019-04-07T09:36:54.445Z,55.60
2019-04-07T09:37:54.710Z,56.71
2019-04-07T09:38:57.030Z,55.69
2019-04-07T09:40:00.362Z,55.49
2019-04-07T09:40:54.301Z,52.67
2019-04-07T09:41:55.154Z,53.17
2019-04-07T09:42:57.377Z,54.38
2019-04-07T09:43:55.126Z,53.78
2019-04-07T09:44:53.801Z,54.18
2019-04-07T09:45:53.967Z,54.76
2019-04-07T09:46:53.240Z,53.75
2019-04-07T09:47:53.236Z,53.45
2019-04-07T09:48:53.360Z,53.75
2019-04-07T09:49:56.336Z,52.84
2019-04-07T09:50:55.448Z,53.05
2019-04-07T09:51:53.875Z,53.42
2019-04-07T09:52:53.167Z,53.96
2019-04-07T09:53:53.368Z,52.54
2019-04-07T09:54:55.480Z,52.94
2019-04-07T09:55:55.584Z,53.32
2019-04-07T09:56:53.246Z,54.23
2019-04-07T09:57:53.861Z,54.53
2019-04-07T09:58:53.542Z,55.14
2019-04-07T09:59:54.506Z,54.83
2019-04-07T10:00:55.516Z,53.72
2019-04-07T10:01:53.086Z,53.93
2019-04-07T10:03:02.290Z,53.83
2019-04-07T10:03:54.042Z,54.23
2019-04-07T10:04:53.070Z,53.72
2019-04-07T10:05:53.021Z,53.83
2019-04-07T10:06:53.012Z,53.93
2019-04-07T10:07:53.279Z,53.42
2019-04-07T10:08:53.316Z,52.09
2019-04-07T10:10:04.805Z,51.98
2019-04-07T10:10:54.791Z,51.98
2019-04-07T10:11:52.976Z,51.98
2019-04-07T10:12:52.944Z,52.59
2019-04-07T10:13:53.136Z,52.79
2019-04-07T10:14:53.120Z,52.09
2019-04-07T10:15:53.263Z,51.58
2019-04-07T10:16:53.252Z,51.78
2019-04-07T10:17:52.880Z,51.07
2019-04-07T10:18:53.284Z,51.76
2019-04-07T10:19:52.945Z,51.96
2019-04-07T10:20:52.849Z,52.06
2019-04-07T10:21:53.469Z,52.36
2019-04-07T10:22:52.861Z,51.86
2019-04-07T10:23:52.831Z,50.45
2019-04-07T10:24:53.570Z,50.85
2019-04-07T10:25:52.796Z,51.76
2019-04-07T10:26:53.539Z,52.06
2019-04-07T10:27:52.828Z,50.55
2019-04-07T10:28:53.198Z,50.45
2019-04-07T10:29:53.183Z,50.35
2019-04-07T10:30:52.931Z,50.52
2019-04-07T10:31:52.934Z,50.52
2019-04-07T10:32:52.718Z,50.62
2019-04-07T10:33:52.736Z,50.65
2019-04-07T10:34:52.695Z,49.82
2019-04-07T10:35:52.686Z,50.22
2019-04-07T10:36:52.756Z,50.22
2019-04-07T10:37:53.210Z,50.02
2019-04-07T10:38:52.650Z,50.52
2019-04-07T10:39:52.758Z,50.82
2019-04-07T10:40:52.701Z,50.70
2019-04-07T10:41:53.243Z,50.40
2019-04-07T10:42:55.316Z,50.10
2019-04-07T10:43:52.666Z,50.40
2019-04-07T10:44:52.597Z,49.29
2019-04-07T10:45:52.580Z,50.60
2019-04-07T10:46:52.559Z,49.49
2019-04-07T10:47:53.297Z,49.49
2019-04-07T10:48:52.565Z,50.50
2019-04-07T10:49:58.623Z,50.30
2019-04-07T10:50:53.565Z,49.29
2019-04-07T10:51:53.248Z,48.49
2019-04-07T10:52:52.529Z,49.29
2019-04-07T10:53:52.676Z,49.39
2019-04-07T10:54:52.495Z,49.69
2019-04-07T10:55:52.496Z,49.79
2019-04-07T10:56:52.457Z,49.59
2019-04-07T10:57:52.491Z,49.39
2019-04-07T10:58:52.821Z,49.39
2019-04-07T10:59:53.263Z,49.49
2019-04-07T11:00:52.673Z,49.27
2019-04-07T11:01:52.451Z,49.49
2019-04-07T11:02:55.425Z,50.80
2019-04-07T11:03:53.967Z,50.07
2019-04-07T11:04:52.808Z,51.08
2019-04-07T11:05:52.372Z,50.98
2019-04-07T11:06:52.368Z,50.68
2019-04-07T11:07:52.384Z,50.88
2019-04-07T11:08:52.329Z,50.07
2019-04-07T11:09:53.079Z,50.68
2019-04-07T11:10:53.216Z,51.08
2019-04-07T11:11:52.408Z,51.08
2019-04-07T11:12:52.518Z,50.57
2019-04-07T11:13:52.260Z,51.79
2019-04-07T11:14:52.253Z,50.35
2019-04-07T11:15:52.700Z,50.45
2019-04-07T11:16:52.496Z,51.46
2019-04-07T11:17:52.758Z,50.25
2019-04-07T11:18:53.028Z,50.35
2019-04-07T11:19:53.021Z,50.15
2019-04-07T11:20:52.182Z,49.85
2019-04-07T11:21:52.951Z,51.36
2019-04-07T11:22:52.949Z,51.26
2019-04-07T11:23:52.323Z,51.16
2019-04-07T11:24:52.725Z,51.46
2019-04-07T11:25:52.134Z,50.56
2019-04-07T11:26:52.721Z,50.65
2019-04-07T11:27:52.828Z,51.36
2019-04-07T11:28:52.489Z,50.85
2019-04-07T11:29:52.790Z,50.65
2019-04-07T11:30:52.162Z,51.76
2019-04-07T11:31:53.234Z,51.34
2019-04-07T11:32:52.543Z,49.82
2019-04-07T11:33:52.508Z,50.23
2019-04-07T11:34:53.016Z,49.32
2019-04-07T11:35:52.169Z,49.62
2019-04-07T11:36:52.784Z,49.73
2019-04-07T11:37:52.838Z,49.73
2019-04-07T11:38:52.743Z,49.22
2019-04-07T11:39:52.327Z,50.43
2019-04-07T11:40:52.415Z,49.52
2019-04-07T11:41:52.718Z,49.73
2019-04-07T11:42:52.366Z,48.41
2019-04-07T11:43:51.964Z,48.72
2019-04-07T11:44:51.924Z,49.32
2019-04-07T11:45:58.340Z,49.73
2019-04-07T11:46:53.039Z,47.71
2019-04-07T11:47:52.552Z,48.11
2019-04-07T11:48:51.897Z,48.82
2019-04-07T11:49:52.049Z,47.61
2019-04-07T11:50:52.212Z,48.52
2019-04-07T11:51:52.375Z,48.92
2019-04-07T11:52:52.626Z,48.21
2019-04-07T11:53:51.826Z,48.21
2019-04-07T11:54:52.126Z,48.11
2019-04-07T11:55:52.157Z,47.51
2019-04-07T11:56:52.363Z,48.39
2019-04-07T11:58:07.396Z,48.09
2019-04-07T11:58:53.098Z,48.39
2019-04-07T11:59:52.367Z,47.39
2019-04-07T12:00:52.572Z,46.18
2019-04-07T12:01:51.766Z,46.08
2019-04-07T12:02:53.320Z,46.08
2019-04-07T12:03:53.835Z,47.79
2019-04-07T12:04:51.772Z,46.36
2019-04-07T12:05:51.715Z,46.68
2019-04-07T12:06:52.571Z,45.87
2019-04-07T12:07:56.230Z,46.76
2019-04-07T12:08:53.371Z,45.45
2019-04-07T12:09:52.242Z,45.45
2019-04-07T12:10:58.667Z,45.45
2019-04-07T12:11:52.742Z,46.06
2019-04-07T12:12:52.676Z,45.75
2019-04-07T12:13:52.557Z,45.75
2019-04-07T12:14:53.476Z,45.53
2019-04-07T12:15:55.269Z,45.83
2019-04-07T12:16:52.415Z,46.23
2019-04-07T12:17:52.264Z,46.03
2019-04-07T12:18:53.273Z,46.94
2019-04-07T12:19:54.815Z,45.63
2019-04-07T12:20:52.949Z,46.23
2019-04-07T12:21:52.685Z,45.94
2019-04-07T12:22:51.521Z,45.83
2019-04-07T12:23:52.755Z,46.23
2019-04-07T12:24:51.566Z,45.83
2019-04-07T12:25:52.714Z,46.23
2019-04-07T12:26:51.829Z,45.73
2019-04-07T12:27:51.646Z,46.03
2019-04-07T12:28:52.367Z,45.43
2019-04-07T12:29:51.633Z,45.43
2019-04-07T12:30:52.868Z,45.91
2019-04-07T12:31:52.135Z,45.51
2019-04-07T12:32:51.781Z,44.31
2019-04-07T12:33:52.716Z,45.71
2019-04-07T12:34:51.400Z,46.72
2019-04-07T12:35:55.022Z,45.91
2019-04-07T12:36:51.348Z,44.31
2019-04-07T12:37:52.041Z,44.20
2019-04-07T12:38:52.270Z,44.20
2019-04-07T12:39:52.246Z,44.20
2019-04-07T12:40:56.385Z,44.71
2019-04-07T12:41:54.957Z,44.60
2019-04-07T12:42:51.349Z,44.10
2019-04-07T12:43:51.629Z,44.20
2019-04-07T12:44:51.265Z,46.01
2019-04-07T12:45:51.293Z,44.20
2019-04-07T12:46:51.267Z,44.00
2019-04-07T12:47:51.747Z,44.00
2019-04-07T12:48:51.412Z,44.18
2019-04-07T12:49:51.947Z,43.68
2019-04-07T12:50:52.264Z,43.78
2019-04-07T12:51:54.327Z,43.58
2019-04-07T12:52:51.872Z,42.07
2019-04-07T12:53:53.594Z,43.38